This is the latest recevied weather packets stored in our database for station/object EA1FWM-12. If no packets are shown the sender has not sent any weather packets the latest 10 day(s).
| Time | Temp. | Humidity | Pressure | Rain* | Wind** | Luminosity | Snow |
|---|---|---|---|---|---|---|---|
| 1788022105 | 23.33° C | 65% | 1023.7 hPa | - | - | - | - |
| 1788021213 | 22.78° C | 66% | 1023.8 hPa | - | - | - | - |
| 1788020305 | 22.22° C | 65% | 1023.7 hPa | - | - | - | - |
| 1788018504 | 24.44° C | 61% | 1023.9 hPa | - | - | - | - |
| 1788017611 | 24.44° C | 60% | 1024 hPa | - | - | - | - |
| 1788016712 | 26.11° C | 59% | 1024.1 hPa | - | - | - | - |
| 1788015812 | 25.56° C | 59% | 1024.1 hPa | - | - | - | - |
| 1788012198 | 24.44° C | 61% | 1024.3 hPa | - | - | - | - |
| 1788011298 | 25° C | 61% | 1024.4 hPa | - | - | - | - |
| 1788009491 | 23.33° C | 63% | 1024.5 hPa | - | - | - | - |
| 1788008598 | 23.33° C | 60% | 1024.5 hPa | - | - | - | - |
| 1788005891 | 26.11° C | 58% | 1024.8 hPa | - | - | - | - |
| 1788002321 | 24.44° C | 62% | 1024.8 hPa | - | - | - | - |
| 1788002288 | 24.44° C | 62% | 1024.8 hPa | - | - | - | - |
| 1788001392 | 25° C | 62% | 1024.8 hPa | - | - | - | - |
| 1788000481 | 24.44° C | 63% | 1024.8 hPa | - | - | - | - |
| 1787999589 | 23.33° C | 65% | 1024.9 hPa | - | - | - | - |
| 1787998682 | 22.22° C | 66% | 1025 hPa | - | - | - | - |
| 1787997782 | 22.22° C | 66% | 1025 hPa | - | - | - | - |
| 1787996888 | 22.78° C | 65% | 1025.1 hPa | - | - | - | - |
| 1787995983 | 22.78° C | 67% | 1024.9 hPa | - | - | - | - |
| 1787995081 | 20.56° C | 71% | 1024.9 hPa | - | - | - | - |
| 1787994182 | 20° C | 69% | 1024.8 hPa | - | - | - | - |
| 1787993283 | 21.67° C | 66% | 1024.6 hPa | - | - | - | - |
| 1787992382 | 23.33° C | 68% | 1024.7 hPa | - | - | - | - |
* Rain since midnight (hover to see other rain measurements)
** Current wind speed in m/s (hover to see current wind gust speed)